Main page
METAR-TAF:

METAR-TAF

Airports :

Hoorn-a, Netherlands

Oil platform

latitude: 52-55-05N, longitude: 4-09-01E, elevation: 41 m

Current weather observation

The report was made 19 minutes ago, at 10:55 UTC
Wind 27 kt from the West
Temperature 10°C
Humidity 87%
Pressure 994 hPa
Visibility: 7000 m
Few clouds at a height of 600 ft
Scattered clouds at a height of 800 ft
Broken clouds at a height of 2200 ft
drizzle

METAR: EHQE 231055Z AUTO 28027KT 7000 DZ FEW006 SCT008 BKN022 10/08 Q0994

Time: 12:14 (11:14 UTC)


TAF: missing

Weather observations and forecasts of more than 4000 airports (METAR and TAF reports).

The available stations are represented by yellow and red dots on the map.

Hover mouse over dot to see the name of the station.

Then click to see weather observations and forecasts.

To change the map : click on the green buttons with a black cross to zoom in, on the green button with a dash to zoom out, or on the green arrows for adjacent maps.


METAR-TAF: